sensor_id;sensor_type;location;lat;lon;timestamp;P1;durP1;ratioP1;P2;durP2;ratioP2
34725;SDS011;20951;50.818;4.344;2023-10-19T00:00:56;7.32;;;1.40;;
34725;SDS011;20951;50.818;4.344;2023-10-19T00:03:31;5.95;;;1.10;;
34725;SDS011;20951;50.818;4.344;2023-10-19T00:05:57;7.95;;;1.00;;
34725;SDS011;20951;50.818;4.344;2023-10-19T00:08:23;5.85;;;1.02;;
34725;SDS011;20951;50.818;4.344;2023-10-19T00:10:52;4.63;;;1.25;;
34725;SDS011;20951;50.818;4.344;2023-10-19T00:13:33;4.88;;;0.80;;
34725;SDS011;20951;50.818;4.344;2023-10-19T00:16:03;3.85;;;1.08;;
34725;SDS011;20951;50.818;4.344;2023-10-19T00:18:49;4.18;;;1.17;;
34725;SDS011;20951;50.818;4.344;2023-10-19T00:21:17;6.13;;;1.20;;
34725;SDS011;20951;50.818;4.344;2023-10-19T00:23:49;4.75;;;1.60;;
34725;SDS011;20951;50.818;4.344;2023-10-19T00:26:23;6.78;;;2.35;;
34725;SDS011;20951;50.818;4.344;2023-10-19T00:28:51;9.40;;;3.53;;
34725;SDS011;20951;50.818;4.344;2023-10-19T00:31:37;8.68;;;4.50;;
34725;SDS011;20951;50.818;4.344;2023-10-19T00:34:05;11.13;;;5.15;;
34725;SDS011;20951;50.818;4.344;2023-10-19T00:36:31;8.32;;;4.78;;
34725;SDS011;20951;50.818;4.344;2023-10-19T00:38:58;10.10;;;4.85;;
34725;SDS011;20951;50.818;4.344;2023-10-19T00:41:38;9.70;;;4.28;;
34725;SDS011;20951;50.818;4.344;2023-10-19T00:44:05;10.02;;;3.85;;
34725;SDS011;20951;50.818;4.344;2023-10-19T00:46:38;9.52;;;3.88;;
34725;SDS011;20951;50.818;4.344;2023-10-19T00:49:08;6.53;;;3.33;;
34725;SDS011;20951;50.818;4.344;2023-10-19T00:51:45;8.48;;;3.67;;
34725;SDS011;20951;50.818;4.344;2023-10-19T00:54:36;8.43;;;3.90;;
34725;SDS011;20951;50.818;4.344;2023-10-19T00:57:16;7.10;;;3.10;;
34725;SDS011;20951;50.818;4.344;2023-10-19T00:59:47;7.68;;;3.20;;
34725;SDS011;20951;50.818;4.344;2023-10-19T01:02:18;9.15;;;3.45;;
34725;SDS011;20951;50.818;4.344;2023-10-19T01:04:51;10.38;;;3.45;;
34725;SDS011;20951;50.818;4.344;2023-10-19T01:07:21;9.43;;;3.58;;
34725;SDS011;20951;50.818;4.344;2023-10-19T01:09:56;8.57;;;3.55;;
34725;SDS011;20951;50.818;4.344;2023-10-19T01:12:24;8.40;;;3.38;;
34725;SDS011;20951;50.818;4.344;2023-10-19T01:17:39;6.78;;;2.80;;
34725;SDS011;20951;50.818;4.344;2023-10-19T01:28:06;9.68;;;2.20;;
34725;SDS011;20951;50.818;4.344;2023-10-19T01:30:34;9.63;;;2.65;;
34725;SDS011;20951;50.818;4.344;2023-10-19T01:33:01;6.97;;;1.90;;
34725;SDS011;20951;50.818;4.344;2023-10-19T01:35:37;5.88;;;1.50;;
34725;SDS011;20951;50.818;4.344;2023-10-19T01:38:22;9.35;;;1.90;;
34725;SDS011;20951;50.818;4.344;2023-10-19T01:40:48;5.40;;;1.58;;
34725;SDS011;20951;50.818;4.344;2023-10-19T01:43:16;7.88;;;1.70;;
34725;SDS011;20951;50.818;4.344;2023-10-19T01:45:56;6.55;;;1.60;;
34725;SDS011;20951;50.818;4.344;2023-10-19T01:48:23;5.32;;;1.67;;
34725;SDS011;20951;50.818;4.344;2023-10-19T01:51:03;7.47;;;1.88;;
34725;SDS011;20951;50.818;4.344;2023-10-19T01:53:30;8.20;;;1.55;;
34725;SDS011;20951;50.818;4.344;2023-10-19T01:56:05;7.45;;;1.75;;
34725;SDS011;20951;50.818;4.344;2023-10-19T01:58:34;8.43;;;2.08;;
34725;SDS011;20951;50.818;4.344;2023-10-19T02:01:04;6.68;;;1.67;;
34725;SDS011;20951;50.818;4.344;2023-10-19T02:03:56;6.88;;;1.60;;
34725;SDS011;20951;50.818;4.344;2023-10-19T02:06:26;6.50;;;1.35;;
34725;SDS011;20951;50.818;4.344;2023-10-19T02:11:42;7.90;;;1.55;;
34725;SDS011;20951;50.818;4.344;2023-10-19T02:14:11;6.65;;;1.35;;
34725;SDS011;20951;50.818;4.344;2023-10-19T02:16:44;6.40;;;1.40;;
34725;SDS011;20951;50.818;4.344;2023-10-19T02:19:25;9.02;;;1.73;;
34725;SDS011;20951;50.818;4.344;2023-10-19T02:21:53;8.27;;;1.30;;
34725;SDS011;20951;50.818;4.344;2023-10-19T02:24:23;9.43;;;1.70;;
34725;SDS011;20951;50.818;4.344;2023-10-19T02:26:51;8.80;;;1.90;;
34725;SDS011;20951;50.818;4.344;2023-10-19T02:29:18;8.35;;;1.42;;
34725;SDS011;20951;50.818;4.344;2023-10-19T02:31:44;10.65;;;1.90;;
34725;SDS011;20951;50.818;4.344;2023-10-19T02:34:11;8.32;;;1.85;;
34725;SDS011;20951;50.818;4.344;2023-10-19T02:36:41;10.15;;;2.10;;
34725;SDS011;20951;50.818;4.344;2023-10-19T02:39:08;9.02;;;1.90;;
34725;SDS011;20951;50.818;4.344;2023-10-19T02:41:37;7.63;;;1.83;;
34725;SDS011;20951;50.818;4.344;2023-10-19T02:44:07;9.25;;;1.85;;
34725;SDS011;20951;50.818;4.344;2023-10-19T02:46:35;8.65;;;2.30;;
34725;SDS011;20951;50.818;4.344;2023-10-19T02:49:05;11.80;;;2.20;;
34725;SDS011;20951;50.818;4.344;2023-10-19T02:51:39;11.70;;;2.10;;
34725;SDS011;20951;50.818;4.344;2023-10-19T02:54:12;8.02;;;1.83;;
34725;SDS011;20951;50.818;4.344;2023-10-19T02:56:44;9.82;;;2.00;;
34725;SDS011;20951;50.818;4.344;2023-10-19T02:59:14;11.38;;;2.35;;
34725;SDS011;20951;50.818;4.344;2023-10-19T03:01:47;9.52;;;1.92;;
34725;SDS011;20951;50.818;4.344;2023-10-19T03:04:14;8.98;;;1.80;;
34725;SDS011;20951;50.818;4.344;2023-10-19T03:06:40;7.57;;;2.00;;
34725;SDS011;20951;50.818;4.344;2023-10-19T03:09:07;9.98;;;2.10;;
34725;SDS011;20951;50.818;4.344;2023-10-19T03:11:52;11.43;;;2.00;;
34725;SDS011;20951;50.818;4.344;2023-10-19T03:14:19;12.55;;;2.20;;
34725;SDS011;20951;50.818;4.344;2023-10-19T03:16:45;11.85;;;2.13;;
34725;SDS011;20951;50.818;4.344;2023-10-19T03:19:11;12.63;;;2.20;;
34725;SDS011;20951;50.818;4.344;2023-10-19T03:21:38;10.23;;;2.35;;
34725;SDS011;20951;50.818;4.344;2023-10-19T03:24:14;11.00;;;2.00;;
34725;SDS011;20951;50.818;4.344;2023-10-19T03:26:49;13.52;;;2.00;;
34725;SDS011;20951;50.818;4.344;2023-10-19T03:29:18;8.02;;;1.90;;
34725;SDS011;20951;50.818;4.344;2023-10-19T03:34:35;9.23;;;1.88;;
34725;SDS011;20951;50.818;4.344;2023-10-19T03:37:01;9.05;;;1.95;;
34725;SDS011;20951;50.818;4.344;2023-10-19T03:39:31;12.90;;;2.47;;
34725;SDS011;20951;50.818;4.344;2023-10-19T03:42:03;11.70;;;2.10;;
34725;SDS011;20951;50.818;4.344;2023-10-19T03:44:31;9.05;;;1.83;;
34725;SDS011;20951;50.818;4.344;2023-10-19T03:47:15;10.50;;;2.40;;
34725;SDS011;20951;50.818;4.344;2023-10-19T03:49:50;10.13;;;2.10;;
34725;SDS011;20951;50.818;4.344;2023-10-19T03:52:16;15.45;;;2.65;;
34725;SDS011;20951;50.818;4.344;2023-10-19T03:54:42;9.82;;;2.28;;
34725;SDS011;20951;50.818;4.344;2023-10-19T03:57:09;9.77;;;2.17;;
34725;SDS011;20951;50.818;4.344;2023-10-19T03:59:45;9.70;;;2.05;;
34725;SDS011;20951;50.818;4.344;2023-10-19T04:02:15;8.18;;;1.92;;
34725;SDS011;20951;50.818;4.344;2023-10-19T04:04:41;12.93;;;2.28;;
34725;SDS011;20951;50.818;4.344;2023-10-19T04:07:14;13.23;;;2.42;;
34725;SDS011;20951;50.818;4.344;2023-10-19T04:09:48;18.50;;;2.78;;
34725;SDS011;20951;50.818;4.344;2023-10-19T04:12:22;8.82;;;1.90;;
34725;SDS011;20951;50.818;4.344;2023-10-19T04:14:48;11.48;;;1.90;;
34725;SDS011;20951;50.818;4.344;2023-10-19T04:17:14;10.98;;;1.88;;
34725;SDS011;20951;50.818;4.344;2023-10-19T04:19:42;9.77;;;2.05;;
34725;SDS011;20951;50.818;4.344;2023-10-19T04:22:09;9.80;;;2.55;;
34725;SDS011;20951;50.818;4.344;2023-10-19T04:24:47;8.52;;;1.80;;
34725;SDS011;20951;50.818;4.344;2023-10-19T04:27:12;12.93;;;2.45;;
34725;SDS011;20951;50.818;4.344;2023-10-19T04:29:38;12.75;;;1.95;;
34725;SDS011;20951;50.818;4.344;2023-10-19T04:32:06;10.82;;;2.50;;
34725;SDS011;20951;50.818;4.344;2023-10-19T04:34:32;10.70;;;2.13;;
34725;SDS011;20951;50.818;4.344;2023-10-19T04:36:58;10.90;;;2.35;;
34725;SDS011;20951;50.818;4.344;2023-10-19T04:39:23;13.55;;;2.22;;
34725;SDS011;20951;50.818;4.344;2023-10-19T04:41:49;10.07;;;2.15;;
34725;SDS011;20951;50.818;4.344;2023-10-19T04:44:15;13.48;;;1.88;;
34725;SDS011;20951;50.818;4.344;2023-10-19T04:46:41;12.45;;;2.10;;
34725;SDS011;20951;50.818;4.344;2023-10-19T04:49:07;11.95;;;2.20;;
34725;SDS011;20951;50.818;4.344;2023-10-19T04:51:33;11.93;;;2.15;;
34725;SDS011;20951;50.818;4.344;2023-10-19T04:54:03;13.25;;;2.72;;
34725;SDS011;20951;50.818;4.344;2023-10-19T04:56:30;14.45;;;2.08;;
34725;SDS011;20951;50.818;4.344;2023-10-19T04:58:57;14.02;;;2.35;;
34725;SDS011;20951;50.818;4.344;2023-10-19T05:01:22;11.45;;;2.35;;
34725;SDS011;20951;50.818;4.344;2023-10-19T05:03:48;12.55;;;2.05;;
34725;SDS011;20951;50.818;4.344;2023-10-19T05:06:16;10.50;;;2.13;;
34725;SDS011;20951;50.818;4.344;2023-10-19T05:08:42;11.48;;;1.98;;
34725;SDS011;20951;50.818;4.344;2023-10-19T05:11:08;10.75;;;2.15;;
34725;SDS011;20951;50.818;4.344;2023-10-19T05:13:34;11.93;;;2.35;;
34725;SDS011;20951;50.818;4.344;2023-10-19T05:16:01;13.68;;;2.55;;
34725;SDS011;20951;50.818;4.344;2023-10-19T05:18:27;11.45;;;2.20;;
34725;SDS011;20951;50.818;4.344;2023-10-19T05:20:52;13.23;;;2.20;;
34725;SDS011;20951;50.818;4.344;2023-10-19T05:23:24;9.68;;;2.08;;
34725;SDS011;20951;50.818;4.344;2023-10-19T05:25:52;13.32;;;2.60;;
34725;SDS011;20951;50.818;4.344;2023-10-19T05:28:19;11.27;;;2.42;;
34725;SDS011;20951;50.818;4.344;2023-10-19T05:30:47;11.20;;;2.25;;
34725;SDS011;20951;50.818;4.344;2023-10-19T05:33:14;13.13;;;2.53;;
34725;SDS011;20951;50.818;4.344;2023-10-19T05:35:40;10.85;;;2.15;;
34725;SDS011;20951;50.818;4.344;2023-10-19T05:38:08;11.95;;;2.20;;
34725;SDS011;20951;50.818;4.344;2023-10-19T05:40:34;11.02;;;1.85;;
34725;SDS011;20951;50.818;4.344;2023-10-19T05:43:01;15.05;;;2.72;;
34725;SDS011;20951;50.818;4.344;2023-10-19T05:45:27;16.33;;;3.03;;
34725;SDS011;20951;50.818;4.344;2023-10-19T05:47:57;9.02;;;2.20;;
34725;SDS011;20951;50.818;4.344;2023-10-19T05:50:23;12.15;;;2.53;;
34725;SDS011;20951;50.818;4.344;2023-10-19T05:52:49;11.65;;;2.20;;
34725;SDS011;20951;50.818;4.344;2023-10-19T05:55:17;11.50;;;2.00;;
34725;SDS011;20951;50.818;4.344;2023-10-19T05:57:42;18.30;;;3.40;;
34725;SDS011;20951;50.818;4.344;2023-10-19T06:00:10;14.48;;;2.65;;
34725;SDS011;20951;50.818;4.344;2023-10-19T06:02:47;9.35;;;1.98;;
34725;SDS011;20951;50.818;4.344;2023-10-19T06:05:16;12.50;;;2.40;;
34725;SDS011;20951;50.818;4.344;2023-10-19T06:07:43;13.90;;;3.00;;
34725;SDS011;20951;50.818;4.344;2023-10-19T06:10:13;16.13;;;2.58;;
34725;SDS011;20951;50.818;4.344;2023-10-19T06:12:47;16.17;;;3.03;;
34725;SDS011;20951;50.818;4.344;2023-10-19T06:15:15;13.80;;;2.85;;
34725;SDS011;20951;50.818;4.344;2023-10-19T06:17:42;14.93;;;2.47;;
34725;SDS011;20951;50.818;4.344;2023-10-19T06:20:11;11.98;;;2.83;;
34725;SDS011;20951;50.818;4.344;2023-10-19T06:22:58;10.55;;;2.03;;
34725;SDS011;20951;50.818;4.344;2023-10-19T06:25:30;15.45;;;3.05;;
34725;SDS011;20951;50.818;4.344;2023-10-19T06:27:57;13.98;;;2.63;;
34725;SDS011;20951;50.818;4.344;2023-10-19T06:30:25;14.73;;;3.00;;
34725;SDS011;20951;50.818;4.344;2023-10-19T06:32:52;17.08;;;2.63;;
34725;SDS011;20951;50.818;4.344;2023-10-19T06:35:25;12.43;;;2.58;;
34725;SDS011;20951;50.818;4.344;2023-10-19T06:37:53;14.27;;;2.63;;
34725;SDS011;20951;50.818;4.344;2023-10-19T06:40:23;15.80;;;2.95;;
34725;SDS011;20951;50.818;4.344;2023-10-19T06:42:51;15.75;;;2.90;;
34725;SDS011;20951;50.818;4.344;2023-10-19T06:45:20;10.63;;;2.08;;
34725;SDS011;20951;50.818;4.344;2023-10-19T06:47:47;14.82;;;2.72;;
34725;SDS011;20951;50.818;4.344;2023-10-19T06:50:15;16.10;;;2.40;;
34725;SDS011;20951;50.818;4.344;2023-10-19T06:52:44;17.25;;;2.92;;
34725;SDS011;20951;50.818;4.344;2023-10-19T06:55:35;15.88;;;2.30;;
34725;SDS011;20951;50.818;4.344;2023-10-19T06:58:03;17.38;;;3.15;;
34725;SDS011;20951;50.818;4.344;2023-10-19T07:00:29;12.85;;;2.50;;
34725;SDS011;20951;50.818;4.344;2023-10-19T07:02:56;12.50;;;2.33;;
34725;SDS011;20951;50.818;4.344;2023-10-19T07:05:25;15.73;;;3.08;;
34725;SDS011;20951;50.818;4.344;2023-10-19T07:07:55;12.43;;;3.00;;
34725;SDS011;20951;50.818;4.344;2023-10-19T07:10:22;16.52;;;3.05;;
34725;SDS011;20951;50.818;4.344;2023-10-19T07:12:51;17.38;;;2.85;;
34725;SDS011;20951;50.818;4.344;2023-10-19T07:15:18;13.77;;;2.92;;
34725;SDS011;20951;50.818;4.344;2023-10-19T07:17:45;12.85;;;2.75;;
34725;SDS011;20951;50.818;4.344;2023-10-19T07:20:12;14.55;;;2.97;;
34725;SDS011;20951;50.818;4.344;2023-10-19T07:22:50;13.43;;;2.95;;
34725;SDS011;20951;50.818;4.344;2023-10-19T07:25:17;17.60;;;3.25;;
34725;SDS011;20951;50.818;4.344;2023-10-19T07:27:50;18.98;;;3.78;;
34725;SDS011;20951;50.818;4.344;2023-10-19T07:30:19;21.00;;;2.95;;
34725;SDS011;20951;50.818;4.344;2023-10-19T07:32:52;9.23;;;2.47;;
34725;SDS011;20951;50.818;4.344;2023-10-19T07:35:24;13.13;;;3.08;;
34725;SDS011;20951;50.818;4.344;2023-10-19T07:37:55;13.90;;;3.13;;
34725;SDS011;20951;50.818;4.344;2023-10-19T07:40:21;13.35;;;2.42;;
34725;SDS011;20951;50.818;4.344;2023-10-19T07:42:49;14.15;;;3.15;;
34725;SDS011;20951;50.818;4.344;2023-10-19T07:45:17;15.57;;;3.10;;
34725;SDS011;20951;50.818;4.344;2023-10-19T07:47:43;15.43;;;3.30;;
34725;SDS011;20951;50.818;4.344;2023-10-19T07:50:13;13.73;;;2.97;;
34725;SDS011;20951;50.818;4.344;2023-10-19T07:52:45;17.05;;;3.40;;
34725;SDS011;20951;50.818;4.344;2023-10-19T07:55:14;16.95;;;3.00;;
34725;SDS011;20951;50.818;4.344;2023-10-19T07:57:41;17.40;;;3.33;;
34725;SDS011;20951;50.818;4.344;2023-10-19T08:00:08;13.00;;;2.67;;
34725;SDS011;20951;50.818;4.344;2023-10-19T08:02:35;16.98;;;3.20;;
34725;SDS011;20951;50.818;4.344;2023-10-19T08:05:03;17.00;;;3.08;;
34725;SDS011;20951;50.818;4.344;2023-10-19T08:07:31;16.55;;;3.03;;
34725;SDS011;20951;50.818;4.344;2023-10-19T08:09:59;18.40;;;2.83;;
34725;SDS011;20951;50.818;4.344;2023-10-19T08:12:25;15.35;;;3.25;;
34725;SDS011;20951;50.818;4.344;2023-10-19T08:14:52;15.48;;;2.88;;
34725;SDS011;20951;50.818;4.344;2023-10-19T08:17:18;13.35;;;2.45;;
34725;SDS011;20951;50.818;4.344;2023-10-19T08:19:44;18.13;;;3.67;;
34725;SDS011;20951;50.818;4.344;2023-10-19T08:22:10;16.77;;;3.50;;
34725;SDS011;20951;50.818;4.344;2023-10-19T08:24:36;15.65;;;3.13;;
34725;SDS011;20951;50.818;4.344;2023-10-19T08:27:01;14.60;;;3.47;;
34725;SDS011;20951;50.818;4.344;2023-10-19T08:29:30;15.57;;;3.30;;
34725;SDS011;20951;50.818;4.344;2023-10-19T08:31:56;18.95;;;3.03;;
34725;SDS011;20951;50.818;4.344;2023-10-19T08:34:22;19.88;;;3.53;;
34725;SDS011;20951;50.818;4.344;2023-10-19T08:36:50;16.17;;;3.13;;
34725;SDS011;20951;50.818;4.344;2023-10-19T08:39:17;22.13;;;3.72;;
34725;SDS011;20951;50.818;4.344;2023-10-19T08:41:43;18.08;;;3.00;;
34725;SDS011;20951;50.818;4.344;2023-10-19T08:44:09;17.65;;;3.55;;
34725;SDS011;20951;50.818;4.344;2023-10-19T08:46:41;15.80;;;3.53;;
34725;SDS011;20951;50.818;4.344;2023-10-19T08:49:11;17.60;;;3.90;;
34725;SDS011;20951;50.818;4.344;2023-10-19T08:51:38;16.08;;;3.30;;
34725;SDS011;20951;50.818;4.344;2023-10-19T08:54:04;19.45;;;3.40;;
34725;SDS011;20951;50.818;4.344;2023-10-19T08:56:31;13.98;;;3.05;;
34725;SDS011;20951;50.818;4.344;2023-10-19T08:59:00;18.55;;;3.42;;
34725;SDS011;20951;50.818;4.344;2023-10-19T09:01:27;14.73;;;3.50;;
34725;SDS011;20951;50.818;4.344;2023-10-19T09:03:56;15.90;;;3.80;;
34725;SDS011;20951;50.818;4.344;2023-10-19T09:06:22;18.23;;;2.97;;
34725;SDS011;20951;50.818;4.344;2023-10-19T09:08:48;16.13;;;3.33;;
34725;SDS011;20951;50.818;4.344;2023-10-19T09:11:14;15.48;;;2.97;;
34725;SDS011;20951;50.818;4.344;2023-10-19T09:13:47;17.38;;;2.90;;
34725;SDS011;20951;50.818;4.344;2023-10-19T09:16:24;15.18;;;2.83;;
34725;SDS011;20951;50.818;4.344;2023-10-19T09:18:51;18.02;;;3.60;;
34725;SDS011;20951;50.818;4.344;2023-10-19T09:21:20;16.67;;;3.33;;
34725;SDS011;20951;50.818;4.344;2023-10-19T09:23:49;17.23;;;3.30;;
34725;SDS011;20951;50.818;4.344;2023-10-19T09:26:17;22.42;;;3.20;;
34725;SDS011;20951;50.818;4.344;2023-10-19T09:28:45;13.88;;;2.35;;
34725;SDS011;20951;50.818;4.344;2023-10-19T09:31:15;14.73;;;3.20;;
34725;SDS011;20951;50.818;4.344;2023-10-19T09:33:42;13.55;;;2.90;;
34725;SDS011;20951;50.818;4.344;2023-10-19T09:36:12;11.73;;;2.65;;
34725;SDS011;20951;50.818;4.344;2023-10-19T09:38:42;16.95;;;3.13;;
34725;SDS011;20951;50.818;4.344;2023-10-19T09:41:19;16.20;;;3.20;;
34725;SDS011;20951;50.818;4.344;2023-10-19T09:43:49;18.42;;;3.40;;
34725;SDS011;20951;50.818;4.344;2023-10-19T09:46:20;13.27;;;2.58;;
34725;SDS011;20951;50.818;4.344;2023-10-19T09:48:50;14.15;;;3.30;;
34725;SDS011;20951;50.818;4.344;2023-10-19T09:51:17;16.48;;;3.00;;
34725;SDS011;20951;50.818;4.344;2023-10-19T09:56:48;15.55;;;3.33;;
34725;SDS011;20951;50.818;4.344;2023-10-19T09:59:28;15.38;;;2.97;;
34725;SDS011;20951;50.818;4.344;2023-10-19T10:02:08;14.48;;;2.80;;
34725;SDS011;20951;50.818;4.344;2023-10-19T10:04:37;16.42;;;3.20;;
34725;SDS011;20951;50.818;4.344;2023-10-19T10:07:05;12.88;;;2.65;;
34725;SDS011;20951;50.818;4.344;2023-10-19T10:09:36;13.63;;;2.85;;
34725;SDS011;20951;50.818;4.344;2023-10-19T10:17:27;12.63;;;3.25;;
34725;SDS011;20951;50.818;4.344;2023-10-19T10:20:39;12.75;;;2.78;;
34725;SDS011;20951;50.818;4.344;2023-10-19T10:22:39;14.15;;;2.90;;
34725;SDS011;20951;50.818;4.344;2023-10-19T10:25:24;16.70;;;2.83;;
34725;SDS011;20951;50.818;4.344;2023-10-19T10:27:55;10.88;;;2.60;;
34725;SDS011;20951;50.818;4.344;2023-10-19T10:30:21;15.00;;;3.40;;
34725;SDS011;20951;50.818;4.344;2023-10-19T10:32:49;13.02;;;2.90;;
34725;SDS011;20951;50.818;4.344;2023-10-19T10:38:05;16.13;;;3.35;;
34725;SDS011;20951;50.818;4.344;2023-10-19T10:43:09;11.50;;;2.70;;
34725;SDS011;20951;50.818;4.344;2023-10-19T10:45:37;16.98;;;3.00;;
34725;SDS011;20951;50.818;4.344;2023-10-19T10:48:03;16.38;;;2.95;;
34725;SDS011;20951;50.818;4.344;2023-10-19T10:50:37;12.15;;;3.03;;
34725;SDS011;20951;50.818;4.344;2023-10-19T10:53:04;13.15;;;2.88;;
34725;SDS011;20951;50.818;4.344;2023-10-19T10:55:30;11.88;;;2.70;;
34725;SDS011;20951;50.818;4.344;2023-10-19T10:57:57;13.52;;;3.58;;
34725;SDS011;20951;50.818;4.344;2023-10-19T11:00:24;12.80;;;2.72;;
34725;SDS011;20951;50.818;4.344;2023-10-19T11:03:01;12.77;;;3.00;;
34725;SDS011;20951;50.818;4.344;2023-10-19T11:05:32;17.52;;;2.95;;
34725;SDS011;20951;50.818;4.344;2023-10-19T11:10:30;13.20;;;2.53;;
34725;SDS011;20951;50.818;4.344;2023-10-19T11:13:03;13.43;;;2.97;;
34725;SDS011;20951;50.818;4.344;2023-10-19T11:15:32;10.27;;;2.42;;
34725;SDS011;20951;50.818;4.344;2023-10-19T11:18:02;13.85;;;2.97;;
34725;SDS011;20951;50.818;4.344;2023-10-19T11:20:28;11.55;;;2.80;;
34725;SDS011;20951;50.818;4.344;2023-10-19T11:22:55;14.38;;;3.45;;
34725;SDS011;20951;50.818;4.344;2023-10-19T11:25:25;9.10;;;2.70;;
34725;SDS011;20951;50.818;4.344;2023-10-19T11:27:56;9.48;;;2.40;;
34725;SDS011;20951;50.818;4.344;2023-10-19T11:30:29;11.73;;;2.28;;
34725;SDS011;20951;50.818;4.344;2023-10-19T11:35:23;12.52;;;2.53;;
34725;SDS011;20951;50.818;4.344;2023-10-19T11:37:53;10.57;;;2.13;;
34725;SDS011;20951;50.818;4.344;2023-10-19T11:40:27;9.07;;;2.30;;
34725;SDS011;20951;50.818;4.344;2023-10-19T11:42:53;9.20;;;2.00;;
34725;SDS011;20951;50.818;4.344;2023-10-19T11:45:25;8.50;;;2.35;;
34725;SDS011;20951;50.818;4.344;2023-10-19T11:47:51;8.15;;;2.30;;
34725;SDS011;20951;50.818;4.344;2023-10-19T11:50:18;12.43;;;2.42;;
34725;SDS011;20951;50.818;4.344;2023-10-19T11:52:45;12.02;;;2.15;;
34725;SDS011;20951;50.818;4.344;2023-10-19T11:55:11;10.05;;;2.05;;
34725;SDS011;20951;50.818;4.344;2023-10-19T11:57:41;8.70;;;2.17;;
34725;SDS011;20951;50.818;4.344;2023-10-19T12:00:10;7.18;;;2.00;;
34725;SDS011;20951;50.818;4.344;2023-10-19T12:02:45;9.90;;;2.08;;
34725;SDS011;20951;50.818;4.344;2023-10-19T12:05:10;10.18;;;2.20;;
34725;SDS011;20951;50.818;4.344;2023-10-19T12:07:36;6.57;;;1.98;;
34725;SDS011;20951;50.818;4.344;2023-10-19T12:10:04;7.95;;;1.90;;
34725;SDS011;20951;50.818;4.344;2023-10-19T12:12:36;6.22;;;1.70;;
34725;SDS011;20951;50.818;4.344;2023-10-19T12:15:03;8.20;;;1.80;;
34725;SDS011;20951;50.818;4.344;2023-10-19T12:17:30;4.90;;;1.48;;
34725;SDS011;20951;50.818;4.344;2023-10-19T12:19:56;6.30;;;1.65;;
34725;SDS011;20951;50.818;4.344;2023-10-19T12:22:22;6.55;;;1.65;;
34725;SDS011;20951;50.818;4.344;2023-10-19T12:24:49;5.70;;;1.73;;
34725;SDS011;20951;50.818;4.344;2023-10-19T12:27:16;5.40;;;1.60;;
34725;SDS011;20951;50.818;4.344;2023-10-19T12:29:43;5.93;;;1.55;;
34725;SDS011;20951;50.818;4.344;2023-10-19T12:32:09;6.55;;;1.90;;
34725;SDS011;20951;50.818;4.344;2023-10-19T12:34:37;5.47;;;1.90;;
34725;SDS011;20951;50.818;4.344;2023-10-19T12:37:02;6.45;;;1.60;;
34725;SDS011;20951;50.818;4.344;2023-10-19T12:39:28;5.43;;;1.42;;
34725;SDS011;20951;50.818;4.344;2023-10-19T12:42:08;6.50;;;1.50;;
34725;SDS011;20951;50.818;4.344;2023-10-19T12:44:34;4.90;;;1.50;;
34725;SDS011;20951;50.818;4.344;2023-10-19T12:47:06;5.45;;;1.25;;
34725;SDS011;20951;50.818;4.344;2023-10-19T12:49:36;4.70;;;1.50;;
34725;SDS011;20951;50.818;4.344;2023-10-19T12:52:03;5.05;;;1.38;;
34725;SDS011;20951;50.818;4.344;2023-10-19T12:54:29;4.78;;;1.30;;
34725;SDS011;20951;50.818;4.344;2023-10-19T12:56:55;4.30;;;1.10;;
34725;SDS011;20951;50.818;4.344;2023-10-19T12:59:21;4.13;;;1.02;;
34725;SDS011;20951;50.818;4.344;2023-10-19T13:01:47;3.75;;;1.10;;
34725;SDS011;20951;50.818;4.344;2023-10-19T13:04:14;4.82;;;1.10;;
34725;SDS011;20951;50.818;4.344;2023-10-19T13:06:44;4.60;;;1.17;;
34725;SDS011;20951;50.818;4.344;2023-10-19T13:09:12;3.03;;;1.10;;
34725;SDS011;20951;50.818;4.344;2023-10-19T13:11:40;4.72;;;1.05;;
34725;SDS011;20951;50.818;4.344;2023-10-19T13:14:08;4.93;;;1.05;;
34725;SDS011;20951;50.818;4.344;2023-10-19T13:16:35;3.33;;;1.17;;
34725;SDS011;20951;50.818;4.344;2023-10-19T13:19:01;4.32;;;1.10;;
34725;SDS011;20951;50.818;4.344;2023-10-19T13:21:35;3.55;;;1.10;;
34725;SDS011;20951;50.818;4.344;2023-10-19T13:24:03;4.70;;;1.10;;
34725;SDS011;20951;50.818;4.344;2023-10-19T13:26:28;5.50;;;1.20;;
34725;SDS011;20951;50.818;4.344;2023-10-19T13:28:54;4.05;;;0.90;;
34725;SDS011;20951;50.818;4.344;2023-10-19T13:31:21;3.25;;;1.00;;
34725;SDS011;20951;50.818;4.344;2023-10-19T13:33:47;5.60;;;1.05;;
34725;SDS011;20951;50.818;4.344;2023-10-19T13:36:14;4.88;;;1.20;;
34725;SDS011;20951;50.818;4.344;2023-10-19T13:38:41;3.75;;;0.90;;
34725;SDS011;20951;50.818;4.344;2023-10-19T13:41:07;5.57;;;1.20;;
34725;SDS011;20951;50.818;4.344;2023-10-19T13:43:35;5.63;;;1.27;;
34725;SDS011;20951;50.818;4.344;2023-10-19T13:46:01;3.97;;;1.05;;
34725;SDS011;20951;50.818;4.344;2023-10-19T13:48:27;5.30;;;1.30;;
34725;SDS011;20951;50.818;4.344;2023-10-19T13:50:53;7.53;;;1.30;;
34725;SDS011;20951;50.818;4.344;2023-10-19T13:53:25;4.28;;;1.00;;
34725;SDS011;20951;50.818;4.344;2023-10-19T13:55:51;4.10;;;0.88;;
34725;SDS011;20951;50.818;4.344;2023-10-19T13:58:17;5.80;;;0.88;;
34725;SDS011;20951;50.818;4.344;2023-10-19T14:00:43;3.13;;;0.93;;
34725;SDS011;20951;50.818;4.344;2023-10-19T14:03:10;3.72;;;1.30;;
34725;SDS011;20951;50.818;4.344;2023-10-19T14:05:45;3.40;;;0.93;;
34725;SDS011;20951;50.818;4.344;2023-10-19T14:08:16;5.20;;;1.10;;
34725;SDS011;20951;50.818;4.344;2023-10-19T14:10:43;5.07;;;1.15;;
34725;SDS011;20951;50.818;4.344;2023-10-19T14:13:10;4.22;;;1.05;;
34725;SDS011;20951;50.818;4.344;2023-10-19T14:15:42;5.38;;;1.20;;
34725;SDS011;20951;50.818;4.344;2023-10-19T14:18:09;5.13;;;1.35;;
34725;SDS011;20951;50.818;4.344;2023-10-19T14:20:35;3.47;;;1.00;;
34725;SDS011;20951;50.818;4.344;2023-10-19T14:23:04;3.42;;;0.98;;
34725;SDS011;20951;50.818;4.344;2023-10-19T14:25:30;3.92;;;1.00;;
34725;SDS011;20951;50.818;4.344;2023-10-19T14:27:56;3.88;;;1.00;;
34725;SDS011;20951;50.818;4.344;2023-10-19T14:30:28;3.55;;;0.98;;
34725;SDS011;20951;50.818;4.344;2023-10-19T14:32:54;3.42;;;0.80;;
34725;SDS011;20951;50.818;4.344;2023-10-19T14:35:22;5.03;;;0.88;;
34725;SDS011;20951;50.818;4.344;2023-10-19T14:37:50;3.25;;;0.90;;
34725;SDS011;20951;50.818;4.344;2023-10-19T14:40:20;3.55;;;1.05;;
34725;SDS011;20951;50.818;4.344;2023-10-19T14:42:50;4.45;;;1.20;;
34725;SDS011;20951;50.818;4.344;2023-10-19T14:45:20;4.03;;;0.90;;
34725;SDS011;20951;50.818;4.344;2023-10-19T14:47:51;4.72;;;1.00;;
34725;SDS011;20951;50.818;4.344;2023-10-19T14:50:19;2.42;;;0.80;;
34725;SDS011;20951;50.818;4.344;2023-10-19T14:52:45;2.83;;;0.95;;
34725;SDS011;20951;50.818;4.344;2023-10-19T14:55:14;2.75;;;0.90;;
34725;SDS011;20951;50.818;4.344;2023-10-19T14:57:43;5.03;;;1.08;;
34725;SDS011;20951;50.818;4.344;2023-10-19T15:00:11;5.68;;;1.00;;
34725;SDS011;20951;50.818;4.344;2023-10-19T15:02:46;4.22;;;0.88;;
34725;SDS011;20951;50.818;4.344;2023-10-19T15:05:14;9.95;;;4.35;;
34725;SDS011;20951;50.818;4.344;2023-10-19T15:07:43;6.30;;;1.10;;
34725;SDS011;20951;50.818;4.344;2023-10-19T15:10:17;4.00;;;1.10;;
34725;SDS011;20951;50.818;4.344;2023-10-19T15:13:05;4.25;;;1.10;;
34725;SDS011;20951;50.818;4.344;2023-10-19T15:15:30;2.88;;;0.90;;
34725;SDS011;20951;50.818;4.344;2023-10-19T15:17:57;2.67;;;0.73;;
34725;SDS011;20951;50.818;4.344;2023-10-19T15:20:26;3.63;;;1.00;;
34725;SDS011;20951;50.818;4.344;2023-10-19T15:22:54;3.17;;;1.08;;
34725;SDS011;20951;50.818;4.344;2023-10-19T15:25:22;3.88;;;1.10;;
34725;SDS011;20951;50.818;4.344;2023-10-19T15:27:51;4.60;;;1.20;;